Coedpoeth, United Kingdom
Current Conditions -  °F | °C
As of 2:20 PM on Friday 19 Dec 2014 (Local Time) from EGNR Reporting Station
Few Clouds Few Clouds  
Wind Chill: 42°   Ceiling: Unl
Heat Index: 48°   Visibility: 6mi
Dew Point: 36°   Wind: 16mph
Humidity: 62%   Direction: 280°W
Pressure: 29.97"   Gusts: NA
Location:  53.05°N, 3.06°W
Report Text: EGNR 191420Z 28014KT 9999 FEW030 09/02 Q1015
Loading
Personal Weather Stations






























Interactive Weather Map New forecast layout! Learn more

10-Day Weather Forecast

Advertisements
Track Severe Weather on mobile